createdAt,value
2022-10-25T00:03:16.613Z,11.17
2022-10-25T00:08:19.114Z,13.70
2022-10-25T00:13:21.471Z,12.23
2022-10-25T00:18:24.140Z,10.90
2022-10-25T00:23:26.545Z,10.10
2022-10-25T00:28:29.038Z,17.10
2022-10-25T00:33:32.631Z,15.37
2022-10-25T00:38:35.567Z,11.57
2022-10-25T00:43:48.063Z,10.27
2022-10-25T00:49:12.625Z,10.20
2022-10-25T00:54:20.265Z,11.13
2022-10-25T00:59:26.269Z,13.37
2022-10-25T01:04:30.895Z,12.43
2022-10-25T01:09:35.942Z,10.90
2022-10-25T01:14:42.740Z,13.07
2022-10-25T01:20:23.221Z,9.63
2022-10-25T01:25:38.491Z,20.60
2022-10-25T01:30:53.246Z,15.23
2022-10-25T01:36:06.788Z,21.77
2022-10-25T01:41:27.486Z,25.10
2022-10-25T01:46:40.308Z,23.73
2022-10-25T01:51:42.881Z,19.87
2022-10-25T01:57:12.534Z,21.53
2022-10-25T02:02:38.500Z,15.93
2022-10-25T02:08:13.201Z,16.67
2022-10-25T02:13:28.385Z,10.97
2022-10-25T02:18:35.674Z,15.20
2022-10-25T02:23:39.509Z,11.37
2022-10-25T02:28:42.720Z,13.50
2022-10-25T02:33:46.987Z,10.57
2022-10-25T02:38:51.565Z,14.70
2022-10-25T02:43:54.084Z,12.87
2022-10-25T02:48:56.558Z,12.60
2022-10-25T02:53:59.152Z,13.23
2022-10-25T02:59:01.579Z,11.93
2022-10-25T03:04:04.081Z,17.03
2022-10-25T03:09:06.537Z,14.57
2022-10-25T03:14:08.970Z,15.47
2022-10-25T03:19:11.487Z,10.63
2022-10-25T03:24:14.010Z,11.33
2022-10-25T03:29:16.514Z,11.43
2022-10-25T03:34:18.919Z,18.50
2022-10-25T03:39:21.321Z,13.70
2022-10-25T03:44:23.744Z,13.73
2022-10-25T03:49:26.722Z,13.57
2022-10-25T03:54:29.505Z,14.20
2022-10-25T03:59:32.019Z,13.07
2022-10-25T04:04:34.407Z,15.53
2022-10-25T04:09:36.970Z,14.80
2022-10-25T04:14:39.393Z,13.37
2022-10-25T04:19:41.820Z,11.50
2022-10-25T04:24:44.314Z,14.93
2022-10-25T04:29:46.745Z,9.87
2022-10-25T04:34:49.151Z,11.80
2022-10-25T04:39:51.478Z,12.93
2022-10-25T04:44:53.976Z,10.97
2022-10-25T04:49:56.593Z,9.20
2022-10-25T04:54:59.047Z,10.70
2022-10-25T05:00:01.456Z,13.67
2022-10-25T05:05:04.033Z,12.17
2022-10-25T05:10:06.604Z,16.53
2022-10-25T05:15:09.775Z,17.13
2022-10-25T05:20:13.052Z,11.43
2022-10-25T05:25:15.739Z,13.87
2022-10-25T05:30:18.310Z,15.17
2022-10-25T05:35:20.791Z,11.77
2022-10-25T05:40:23.274Z,15.70
2022-10-25T05:45:26.118Z,13.53
2022-10-25T05:50:28.617Z,14.60
2022-10-25T05:55:31.140Z,9.23
2022-10-25T06:00:33.552Z,15.43
2022-10-25T06:05:36.005Z,12.83
2022-10-25T06:10:38.390Z,9.83
2022-10-25T06:15:40.851Z,8.97
2022-10-25T06:20:43.303Z,16.07
2022-10-25T06:25:46.014Z,27.10
2022-10-25T06:30:48.428Z,15.23
2022-10-25T06:35:55.947Z,15.30
2022-10-25T06:41:00.246Z,17.67
2022-10-25T06:46:07.057Z,15.50
2022-10-25T06:51:12.488Z,15.60
2022-10-25T06:56:15.253Z,13.27
2022-10-25T07:01:19.722Z,16.83
2022-10-25T07:06:36.166Z,10.10
2022-10-25T07:11:39.464Z,19.50
2022-10-25T07:16:41.878Z,12.13
2022-10-25T07:21:45.228Z,12.60
2022-10-25T07:26:47.775Z,9.80
2022-10-25T07:31:50.266Z,9.57
2022-10-25T07:36:53.781Z,12.57
2022-10-25T07:41:56.278Z,10.73
2022-10-25T07:46:58.731Z,10.03
2022-10-25T07:52:01.513Z,11.17
2022-10-25T07:57:04.068Z,12.17
2022-10-25T08:02:11.776Z,9.57
2022-10-25T08:07:14.376Z,10.00
2022-10-25T08:12:21.620Z,13.40
2022-10-25T08:17:24.916Z,13.87
2022-10-25T08:22:27.289Z,13.37
2022-10-25T08:27:29.726Z,8.53
2022-10-25T08:32:32.167Z,11.40
2022-10-25T08:37:34.631Z,10.03
2022-10-25T08:42:48.895Z,10.23
2022-10-25T08:47:55.446Z,10.80
2022-10-25T08:53:01.709Z,18.07
2022-10-25T08:58:08.414Z,9.33
2022-10-25T09:03:18.059Z,10.30
2022-10-25T09:08:41.937Z,10.97
2022-10-25T09:14:09.417Z,11.50
2022-10-25T09:19:29.519Z,11.03
2022-10-25T09:24:43.688Z,11.13
2022-10-25T09:30:05.127Z,12.00
2022-10-25T09:35:16.805Z,8.77
2022-10-25T09:40:27.999Z,9.47
2022-10-25T09:45:44.273Z,8.87
2022-10-25T09:50:49.265Z,13.17
2022-10-25T09:55:57.636Z,10.93
2022-10-25T10:01:05.388Z,12.23
2022-10-25T10:06:16.828Z,11.23
2022-10-25T10:11:20.556Z,7.90
2022-10-25T10:16:43.606Z,7.73
2022-10-25T10:22:10.818Z,11.13
2022-10-25T10:27:22.198Z,7.77
2022-10-25T10:32:36.408Z,8.30
2022-10-25T10:37:38.915Z,8.47
2022-10-25T10:42:42.798Z,11.70
2022-10-25T10:47:51.470Z,6.07
2022-10-25T10:52:56.562Z,5.60
2022-10-25T10:58:22.875Z,8.40
2022-10-25T11:03:35.231Z,9.20
2022-10-25T11:08:37.641Z,6.90
2022-10-25T11:13:40.356Z,9.43
2022-10-25T11:18:54.175Z,13.00
2022-10-25T11:24:02.427Z,10.00
2022-10-25T11:29:29.553Z,7.57
2022-10-25T11:34:58.652Z,6.73
2022-10-25T11:40:20.217Z,8.73
2022-10-25T11:45:22.894Z,8.43
2022-10-25T11:50:49.334Z,6.13
2022-10-25T11:56:07.323Z,7.50
2022-10-25T12:01:33.089Z,8.17
2022-10-25T12:06:44.059Z,7.40
2022-10-25T12:11:55.762Z,8.70
2022-10-25T12:17:01.423Z,11.57
2022-10-25T12:22:13.920Z,4.07
2022-10-25T12:27:22.466Z,7.17
2022-10-25T12:32:57.493Z,6.60
2022-10-25T12:38:08.177Z,7.33
2022-10-25T12:43:40.773Z,7.03
2022-10-25T12:49:13.305Z,7.43
2022-10-25T12:54:36.705Z,6.07
2022-10-25T12:59:39.119Z,12.80
2022-10-25T13:05:17.412Z,11.53
2022-10-25T13:10:22.698Z,6.40
2022-10-25T13:15:25.195Z,6.07
2022-10-25T13:20:36.444Z,6.83
2022-10-25T13:25:47.746Z,4.43
2022-10-25T13:30:50.111Z,3.87
2022-10-25T13:35:52.698Z,6.43
2022-10-25T13:41:16.386Z,4.37
2022-10-25T13:46:23.623Z,4.20
2022-10-25T13:51:26.121Z,10.37
2022-10-25T13:56:28.531Z,4.40
2022-10-25T14:01:32.123Z,8.57
2022-10-25T14:06:41.949Z,5.13
2022-10-25T14:12:02.929Z,6.97
2022-10-25T14:17:18.974Z,6.87
2022-10-25T14:22:34.566Z,10.13
2022-10-25T14:27:37.519Z,6.93
2022-10-25T14:32:48.340Z,5.17
2022-10-25T14:37:51.133Z,5.67
2022-10-25T14:43:21.175Z,5.93
2022-10-25T14:48:23.706Z,9.33
2022-10-25T14:53:28.612Z,5.43
2022-10-25T14:58:42.637Z,7.87
2022-10-25T15:03:46.520Z,6.80
2022-10-25T15:08:52.352Z,5.83
2022-10-25T15:13:57.746Z,3.80
2022-10-25T15:19:09.336Z,4.57
2022-10-25T15:24:17.780Z,5.40
2022-10-25T15:29:42.152Z,5.63
2022-10-25T15:34:47.755Z,4.93
2022-10-25T15:39:52.491Z,8.20
2022-10-25T15:44:55.547Z,6.57
2022-10-25T15:49:58.973Z,12.33
2022-10-25T15:55:01.406Z,14.07
2022-10-25T16:00:04.109Z,9.93
2022-10-25T16:05:31.072Z,10.67
2022-10-25T16:10:33.572Z,12.37
2022-10-25T16:15:36.140Z,12.50
2022-10-25T16:20:38.691Z,11.93
2022-10-25T16:25:41.351Z,16.57
2022-10-25T16:30:45.672Z,24.30
2022-10-25T16:35:48.103Z,33.60
2022-10-25T16:40:51.287Z,31.10
2022-10-25T16:45:53.765Z,26.37
2022-10-25T16:50:56.192Z,24.00
2022-10-25T16:55:59.630Z,24.23
2022-10-25T17:01:02.138Z,23.07
2022-10-25T17:06:22.229Z,22.93
2022-10-25T17:11:28.477Z,27.90
2022-10-25T17:16:31.038Z,34.03
2022-10-25T17:21:35.806Z,41.17
2022-10-25T17:26:39.023Z,39.87
2022-10-25T17:31:41.726Z,31.27
2022-10-25T17:36:44.157Z,22.23
2022-10-25T17:41:46.679Z,29.70
2022-10-25T17:46:49.328Z,20.70
2022-10-25T17:51:51.784Z,32.20
2022-10-25T17:56:58.537Z,35.77
2022-10-25T18:02:01.098Z,34.13
2022-10-25T18:07:03.777Z,33.63
2022-10-25T18:12:09.552Z,31.63
2022-10-25T18:17:12.071Z,32.53
2022-10-25T18:22:14.772Z,37.33
2022-10-25T18:27:17.161Z,26.73
2022-10-25T18:32:20.623Z,27.10
2022-10-25T18:37:23.330Z,23.77
2022-10-25T18:42:26.029Z,22.67
2022-10-25T18:47:28.505Z,21.50
2022-10-25T18:52:31.108Z,16.43
2022-10-25T18:57:33.810Z,18.00
2022-10-25T19:02:38.045Z,14.63
2022-10-25T19:07:40.871Z,19.90
2022-10-25T19:12:43.707Z,18.20
2022-10-25T19:17:51.385Z,13.60
2022-10-25T19:22:58.669Z,14.20
2022-10-25T19:28:01.811Z,15.47
2022-10-25T19:33:04.706Z,18.47
2022-10-25T19:38:07.563Z,11.93
2022-10-25T19:43:10.272Z,14.90
2022-10-25T19:48:12.852Z,12.40
2022-10-25T19:53:15.434Z,14.33
2022-10-25T19:58:17.914Z,16.87
2022-10-25T20:03:20.354Z,8.77
2022-10-25T20:08:23.428Z,15.40
2022-10-25T20:13:25.864Z,15.77
2022-10-25T20:18:33.925Z,11.77
2022-10-25T20:23:36.563Z,11.27
2022-10-25T20:28:39.120Z,11.83
2022-10-25T20:33:41.956Z,12.60
2022-10-25T20:38:45.421Z,9.83
2022-10-25T20:43:49.862Z,10.13
2022-10-25T20:48:53.226Z,11.80
2022-10-25T20:53:57.043Z,13.50
2022-10-25T20:58:59.550Z,8.27
2022-10-25T21:04:01.955Z,12.37
2022-10-25T21:09:04.430Z,10.60
2022-10-25T21:14:06.969Z,15.30
2022-10-25T21:19:09.496Z,14.20
2022-10-25T21:24:12.021Z,17.23
2022-10-25T21:29:14.703Z,20.37
2022-10-25T21:39:23.980Z,18.90
2022-10-25T21:44:26.321Z,22.20
2022-10-25T21:49:28.767Z,22.80
2022-10-25T21:54:31.189Z,20.30
2022-10-25T21:59:33.619Z,25.50
2022-10-25T22:04:36.112Z,22.50
2022-10-25T22:09:38.869Z,29.77
2022-10-25T22:14:41.096Z,38.73
2022-10-25T22:19:43.554Z,30.60
2022-10-25T22:24:45.999Z,27.67
2022-10-25T22:29:48.364Z,23.00
2022-10-25T22:34:50.757Z,29.20
2022-10-25T22:39:53.139Z,24.80
2022-10-25T22:44:55.586Z,24.40
2022-10-25T22:49:57.983Z,21.57
2022-10-25T22:55:00.366Z,28.00
2022-10-25T23:00:03.114Z,28.43
2022-10-25T23:05:05.864Z,23.93
2022-10-25T23:10:08.631Z,24.23
2022-10-25T23:15:11.256Z,25.43
2022-10-25T23:20:13.796Z,22.07
2022-10-25T23:25:16.268Z,18.00
2022-10-25T23:30:18.663Z,20.10
2022-10-25T23:35:21.090Z,19.97
2022-10-25T23:40:23.551Z,21.30
2022-10-25T23:45:26.751Z,22.07
2022-10-25T23:50:31.926Z,17.70
2022-10-25T23:55:35.385Z,24.53
